sensor_id;sensor_type;location;lat;lon;timestamp;pressure;altitude;pressure_sealevel;temperature;humidity
14089;BME280;7120;52.890;6.040;2023-02-19T00:01:30;101505.47;;;9.87;100.00
14089;BME280;7120;52.890;6.040;2023-02-19T00:03:59;101500.03;;;9.82;100.00
14089;BME280;7120;52.890;6.040;2023-02-19T00:06:25;101518.63;;;9.75;100.00
14089;BME280;7120;52.890;6.040;2023-02-19T00:08:52;101501.66;;;9.78;100.00
14089;BME280;7120;52.890;6.040;2023-02-19T00:11:20;101518.03;;;9.88;100.00
14089;BME280;7120;52.890;6.040;2023-02-19T00:13:48;101509.03;;;9.82;100.00
14089;BME280;7120;52.890;6.040;2023-02-19T00:16:16;101515.25;;;9.93;100.00
14089;BME280;7120;52.890;6.040;2023-02-19T00:18:42;101510.63;;;9.88;100.00
14089;BME280;7120;52.890;6.040;2023-02-19T00:21:08;101504.69;;;9.71;100.00
14089;BME280;7120;52.890;6.040;2023-02-19T00:23:34;101500.31;;;9.80;100.00
14089;BME280;7120;52.890;6.040;2023-02-19T00:26:05;101513.16;;;9.75;100.00
14089;BME280;7120;52.890;6.040;2023-02-19T00:28:30;101518.03;;;9.88;100.00
14089;BME280;7120;52.890;6.040;2023-02-19T00:31:02;101507.41;;;9.76;100.00
14089;BME280;7120;52.890;6.040;2023-02-19T00:33:27;101515.09;;;9.69;100.00
14089;BME280;7120;52.890;6.040;2023-02-19T00:35:53;101511.22;;;9.80;100.00
14089;BME280;7120;52.890;6.040;2023-02-19T00:38:18;101517.44;;;9.91;100.00
14089;BME280;7120;52.890;6.040;2023-02-19T00:40:44;101519.44;;;9.80;100.00
14089;BME280;7120;52.890;6.040;2023-02-19T00:43:09;101508.88;;;9.58;100.00
14089;BME280;7120;52.890;6.040;2023-02-19T00:45:34;101514.00;;;9.70;100.00
14089;BME280;7120;52.890;6.040;2023-02-19T00:48:00;101517.06;;;9.58;100.00
14089;BME280;7120;52.890;6.040;2023-02-19T00:50:25;101503.94;;;9.55;100.00
14089;BME280;7120;52.890;6.040;2023-02-19T00:52:51;101510.75;;;9.58;100.00
14089;BME280;7120;52.890;6.040;2023-02-19T00:55:16;101502.22;;;9.75;100.00
14089;BME280;7120;52.890;6.040;2023-02-19T00:57:41;101513.25;;;9.54;99.75
14089;BME280;7120;52.890;6.040;2023-02-19T01:00:07;101505.03;;;9.54;100.00
14089;BME280;7120;52.890;6.040;2023-02-19T01:02:33;101507.53;;;9.41;100.00
14089;BME280;7120;52.890;6.040;2023-02-19T01:04:58;101522.53;;;9.48;100.00
14089;BME280;7120;52.890;6.040;2023-02-19T01:07:23;101517.88;;;9.49;100.00
14089;BME280;7120;52.890;6.040;2023-02-19T01:09:49;101513.53;;;9.43;100.00
14089;BME280;7120;52.890;6.040;2023-02-19T01:12:14;101514.34;;;9.53;100.00
14089;BME280;7120;52.890;6.040;2023-02-19T01:14:40;101504.53;;;9.52;100.00
14089;BME280;7120;52.890;6.040;2023-02-19T01:17:05;101496.34;;;9.47;99.64
14089;BME280;7120;52.890;6.040;2023-02-19T01:19:31;101516.78;;;9.55;100.00
14089;BME280;7120;52.890;6.040;2023-02-19T01:21:56;101505.84;;;9.55;99.47
14089;BME280;7120;52.890;6.040;2023-02-19T01:24:21;101522.81;;;9.52;100.00
14089;BME280;7120;52.890;6.040;2023-02-19T01:26:47;101507.53;;;9.46;100.00
14089;BME280;7120;52.890;6.040;2023-02-19T01:29:12;101516.50;;;9.51;100.00
14089;BME280;7120;52.890;6.040;2023-02-19T01:31:38;101519.25;;;9.51;100.00
14089;BME280;7120;52.890;6.040;2023-02-19T01:34:09;101512.47;;;9.33;100.00
14089;BME280;7120;52.890;6.040;2023-02-19T01:36:34;101516.59;;;9.31;100.00
14089;BME280;7120;52.890;6.040;2023-02-19T01:39:03;101521.72;;;9.43;100.00
14089;BME280;7120;52.890;6.040;2023-02-19T01:41:29;101510.56;;;9.34;100.00
14089;BME280;7120;52.890;6.040;2023-02-19T01:46:24;101530.22;;;9.36;100.00
14089;BME280;7120;52.890;6.040;2023-02-19T01:48:49;101519.03;;;9.27;100.00
14089;BME280;7120;52.890;6.040;2023-02-19T01:51:17;101525.59;;;9.31;100.00
14089;BME280;7120;52.890;6.040;2023-02-19T01:53:48;101525.56;;;9.42;100.00
14089;BME280;7120;52.890;6.040;2023-02-19T01:56:17;101506.78;;;9.20;100.00
14089;BME280;7120;52.890;6.040;2023-02-19T01:58:44;101519.03;;;9.38;100.00
14089;BME280;7120;52.890;6.040;2023-02-19T02:01:10;101517.13;;;9.38;100.00
14089;BME280;7120;52.890;6.040;2023-02-19T02:03:37;101525.84;;;9.35;100.00
14089;BME280;7120;52.890;6.040;2023-02-19T02:06:12;101530.47;;;9.45;100.00
14089;BME280;7120;52.890;6.040;2023-02-19T02:08:39;101522.28;;;9.45;100.00
14089;BME280;7120;52.890;6.040;2023-02-19T02:11:23;101527.19;;;9.43;100.00
14089;BME280;7120;52.890;6.040;2023-02-19T02:13:50;101533.47;;;9.48;100.00
14089;BME280;7120;52.890;6.040;2023-02-19T02:16:23;101523.09;;;9.40;100.00
14089;BME280;7120;52.890;6.040;2023-02-19T02:21:34;101543.28;;;9.44;100.00
14089;BME280;7120;52.890;6.040;2023-02-19T02:32:45;101535.16;;;9.24;100.00
14089;BME280;7120;52.890;6.040;2023-02-19T02:35:41;101554.81;;;9.31;100.00
14089;BME280;7120;52.890;6.040;2023-02-19T02:38:07;101564.88;;;9.35;100.00
14089;BME280;7120;52.890;6.040;2023-02-19T02:40:34;101555.34;;;9.28;100.00
14089;BME280;7120;52.890;6.040;2023-02-19T02:42:59;101547.44;;;9.26;100.00
14089;BME280;7120;52.890;6.040;2023-02-19T02:45:29;101566.53;;;9.31;100.00
14089;BME280;7120;52.890;6.040;2023-02-19T02:50:33;101574.16;;;9.29;100.00
14089;BME280;7120;52.890;6.040;2023-02-19T02:53:02;101578.81;;;9.29;100.00
14089;BME280;7120;52.890;6.040;2023-02-19T02:55:51;101570.66;;;9.24;100.00
14089;BME280;7120;52.890;6.040;2023-02-19T02:58:19;101576.91;;;9.19;100.00
14089;BME280;7120;52.890;6.040;2023-02-19T03:00:51;101577.16;;;9.23;100.00
14089;BME280;7120;52.890;6.040;2023-02-19T03:03:38;101594.13;;;9.25;100.00
14089;BME280;7120;52.890;6.040;2023-02-19T03:06:06;101584.28;;;9.19;100.00
14089;BME280;7120;52.890;6.040;2023-02-19T03:08:50;101584.53;;;9.22;100.00
14089;BME280;7120;52.890;6.040;2023-02-19T03:11:16;101587.56;;;9.21;100.00
14089;BME280;7120;52.890;6.040;2023-02-19T03:14:07;101582.38;;;9.19;100.00
14089;BME280;7120;52.890;6.040;2023-02-19T03:16:58;101592.72;;;9.22;100.00
14089;BME280;7120;52.890;6.040;2023-02-19T03:19:47;101592.47;;;9.24;100.00
14089;BME280;7120;52.890;6.040;2023-02-19T03:22:41;101589.75;;;9.24;100.00
14089;BME280;7120;52.890;6.040;2023-02-19T03:25:17;101607.72;;;9.30;100.00
14089;BME280;7120;52.890;6.040;2023-02-19T03:28:04;101600.38;;;9.25;100.00
14089;BME280;7120;52.890;6.040;2023-02-19T03:30:33;101611.28;;;9.35;100.00
14089;BME280;7120;52.890;6.040;2023-02-19T03:33:03;101615.94;;;9.30;100.00
14089;BME280;7120;52.890;6.040;2023-02-19T03:35:35;101617.06;;;9.24;100.00
14089;BME280;7120;52.890;6.040;2023-02-19T03:38:16;101617.31;;;9.27;100.00
14089;BME280;7120;52.890;6.040;2023-02-19T03:40:53;101619.78;;;9.19;100.00
14089;BME280;7120;52.890;6.040;2023-02-19T03:43:29;101624.41;;;9.13;100.00
14089;BME280;7120;52.890;6.040;2023-02-19T03:48:52;101633.69;;;9.27;100.00
14089;BME280;7120;52.890;6.040;2023-02-19T03:54:11;101635.59;;;9.27;100.00
14089;BME280;7120;52.890;6.040;2023-02-19T03:56:51;101624.69;;;9.32;100.00
14089;BME280;7120;52.890;6.040;2023-02-19T03:59:45;101620.31;;;9.31;100.00
14089;BME280;7120;52.890;6.040;2023-02-19T04:02:17;101628.22;;;9.32;100.00
14089;BME280;7120;52.890;6.040;2023-02-19T04:04:58;101638.88;;;9.34;100.00
14089;BME280;7120;52.890;6.040;2023-02-19T04:07:31;101639.41;;;9.21;100.00
14089;BME280;7120;52.890;6.040;2023-02-19T04:09:57;101650.06;;;9.17;100.00
14089;BME280;7120;52.890;6.040;2023-02-19T04:12:23;101669.44;;;9.31;100.00
14089;BME280;7120;52.890;6.040;2023-02-19T04:14:52;101668.34;;;9.32;100.00
14089;BME280;7120;52.890;6.040;2023-02-19T04:17:27;101681.44;;;9.35;99.94
14089;BME280;7120;52.890;6.040;2023-02-19T04:19:55;101682.28;;;9.25;99.77
14089;BME280;7120;52.890;6.040;2023-02-19T04:22:21;101688.00;;;9.19;100.00
14089;BME280;7120;52.890;6.040;2023-02-19T04:24:49;101687.44;;;9.22;99.63
14089;BME280;7120;52.890;6.040;2023-02-19T04:27:17;101674.31;;;9.08;99.92
14089;BME280;7120;52.890;6.040;2023-02-19T04:29:43;101683.06;;;9.05;99.77
14089;BME280;7120;52.890;6.040;2023-02-19T04:32:10;101687.16;;;9.08;99.94
14089;BME280;7120;52.890;6.040;2023-02-19T04:34:35;101701.09;;;9.17;99.78
14089;BME280;7120;52.890;6.040;2023-02-19T04:37:01;101695.91;;;9.25;99.62
14089;BME280;7120;52.890;6.040;2023-02-19T04:39:26;101703.03;;;9.31;99.48
14089;BME280;7120;52.890;6.040;2023-02-19T04:41:52;101705.19;;;9.19;99.37
14089;BME280;7120;52.890;6.040;2023-02-19T04:44:17;101707.91;;;9.19;100.00
14089;BME280;7120;52.890;6.040;2023-02-19T04:46:42;101725.66;;;9.27;98.95
14089;BME280;7120;52.890;6.040;2023-02-19T04:49:08;101727.28;;;9.23;100.00
14089;BME280;7120;52.890;6.040;2023-02-19T04:51:33;101736.31;;;9.23;98.94
14089;BME280;7120;52.890;6.040;2023-02-19T04:53:58;101738.50;;;9.16;99.30
14089;BME280;7120;52.890;6.040;2023-02-19T04:56:24;101741.44;;;8.99;100.00
14089;BME280;7120;52.890;6.040;2023-02-19T04:58:49;101739.75;;;8.78;100.00
14089;BME280;7120;52.890;6.040;2023-02-19T05:01:15;101744.59;;;8.61;100.00
14089;BME280;7120;52.890;6.040;2023-02-19T05:03:40;101750.81;;;8.46;100.00
14089;BME280;7120;52.890;6.040;2023-02-19T05:06:08;101759.66;;;8.26;100.00
14089;BME280;7120;52.890;6.040;2023-02-19T05:08:35;101750.56;;;8.10;100.00
14089;BME280;7120;52.890;6.040;2023-02-19T05:11:01;101770.47;;;8.11;100.00
14089;BME280;7120;52.890;6.040;2023-02-19T05:13:28;101762.75;;;7.97;100.00
14089;BME280;7120;52.890;6.040;2023-02-19T05:16:05;101765.97;;;7.94;100.00
14089;BME280;7120;52.890;6.040;2023-02-19T05:18:32;101775.78;;;7.95;100.00
14089;BME280;7120;52.890;6.040;2023-02-19T05:20:59;101783.78;;;7.70;100.00
14089;BME280;7120;52.890;6.040;2023-02-19T05:23:25;101797.59;;;7.63;100.00
14089;BME280;7120;52.890;6.040;2023-02-19T05:25:51;101807.53;;;7.48;100.00
14089;BME280;7120;52.890;6.040;2023-02-19T05:28:16;101809.66;;;7.40;100.00
14089;BME280;7120;52.890;6.040;2023-02-19T05:30:50;101806.19;;;7.23;100.00
14089;BME280;7120;52.890;6.040;2023-02-19T05:33:17;101819.91;;;7.33;100.00
14089;BME280;7120;52.890;6.040;2023-02-19T05:35:45;101824.41;;;7.23;100.00
14089;BME280;7120;52.890;6.040;2023-02-19T05:38:11;101822.03;;;7.31;100.00
14089;BME280;7120;52.890;6.040;2023-02-19T05:40:37;101834.16;;;7.19;100.00
14089;BME280;7120;52.890;6.040;2023-02-19T05:43:03;101832.91;;;7.26;100.00
14089;BME280;7120;52.890;6.040;2023-02-19T05:45:29;101839.53;;;7.13;100.00
14089;BME280;7120;52.890;6.040;2023-02-19T05:47:54;101839.84;;;7.17;100.00
14089;BME280;7120;52.890;6.040;2023-02-19T05:50:20;101843.97;;;7.20;100.00
14089;BME280;7120;52.890;6.040;2023-02-19T05:52:45;101854.47;;;7.11;100.00
14089;BME280;7120;52.890;6.040;2023-02-19T05:55:10;101855.88;;;7.13;100.00
14089;BME280;7120;52.890;6.040;2023-02-19T05:57:40;101868.69;;;7.18;100.00
14089;BME280;7120;52.890;6.040;2023-02-19T06:00:08;101854.69;;;7.31;100.00
14089;BME280;7120;52.890;6.040;2023-02-19T06:02:35;101858.44;;;7.03;100.00
14089;BME280;7120;52.890;6.040;2023-02-19T06:05:00;101872.44;;;7.12;100.00
14089;BME280;7120;52.890;6.040;2023-02-19T06:07:26;101872.38;;;7.07;100.00
14089;BME280;7120;52.890;6.040;2023-02-19T06:09:51;101873.00;;;6.92;100.00
14089;BME280;7120;52.890;6.040;2023-02-19T06:12:17;101871.59;;;7.11;100.00
14089;BME280;7120;52.890;6.040;2023-02-19T06:14:42;101873.75;;;6.87;100.00
14089;BME280;7120;52.890;6.040;2023-02-19T06:17:07;101888.63;;;7.02;100.00
14089;BME280;7120;52.890;6.040;2023-02-19T06:19:33;101885.66;;;7.03;100.00
14089;BME280;7120;52.890;6.040;2023-02-19T06:21:58;101877.25;;;7.05;99.56
14089;BME280;7120;52.890;6.040;2023-02-19T06:24:23;101887.09;;;7.11;100.00
14089;BME280;7120;52.890;6.040;2023-02-19T06:26:49;101902.16;;;6.97;99.86
14089;BME280;7120;52.890;6.040;2023-02-19T06:29:15;101920.56;;;7.11;99.61
14089;BME280;7120;52.890;6.040;2023-02-19T06:31:41;101931.94;;;6.86;99.74
14089;BME280;7120;52.890;6.040;2023-02-19T06:34:06;101942.09;;;6.74;100.00
14089;BME280;7120;52.890;6.040;2023-02-19T06:36:32;101946.91;;;6.89;100.00
14089;BME280;7120;52.890;6.040;2023-02-19T06:39:03;101956.88;;;6.83;100.00
14089;BME280;7120;52.890;6.040;2023-02-19T06:41:28;101971.97;;;6.91;100.00
14089;BME280;7120;52.890;6.040;2023-02-19T06:43:56;101967.06;;;6.71;100.00
14089;BME280;7120;52.890;6.040;2023-02-19T06:46:21;101972.56;;;6.76;100.00
14089;BME280;7120;52.890;6.040;2023-02-19T06:48:46;101978.06;;;6.81;100.00
14089;BME280;7120;52.890;6.040;2023-02-19T06:51:17;101984.19;;;6.72;100.00
14089;BME280;7120;52.890;6.040;2023-02-19T06:53:44;101988.63;;;6.61;100.00
14089;BME280;7120;52.890;6.040;2023-02-19T06:56:29;102002.72;;;6.75;100.00
14089;BME280;7120;52.890;6.040;2023-02-19T06:58:58;102006.09;;;6.82;100.00
14089;BME280;7120;52.890;6.040;2023-02-19T07:01:24;102011.69;;;6.58;100.00
14089;BME280;7120;52.890;6.040;2023-02-19T07:03:50;102015.38;;;6.36;100.00
14089;BME280;7120;52.890;6.040;2023-02-19T07:06:20;102031.91;;;6.34;100.00
14089;BME280;7120;52.890;6.040;2023-02-19T07:08:46;102025.59;;;6.28;100.00
14089;BME280;7120;52.890;6.040;2023-02-19T07:11:12;102030.19;;;6.28;100.00
14089;BME280;7120;52.890;6.040;2023-02-19T07:13:37;102045.22;;;6.19;100.00
14089;BME280;7120;52.890;6.040;2023-02-19T07:16:05;102036.84;;;6.20;100.00
14089;BME280;7120;52.890;6.040;2023-02-19T07:18:34;102035.13;;;6.31;100.00
14089;BME280;7120;52.890;6.040;2023-02-19T07:21:03;102038.28;;;6.11;98.84
14089;BME280;7120;52.890;6.040;2023-02-19T07:23:29;102039.38;;;6.27;99.58
14089;BME280;7120;52.890;6.040;2023-02-19T07:25:54;102022.34;;;6.15;97.82
14089;BME280;7120;52.890;6.040;2023-02-19T07:28:20;102014.38;;;6.25;97.73
14089;BME280;7120;52.890;6.040;2023-02-19T07:30:45;102021.69;;;6.24;96.44
14089;BME280;7120;52.890;6.040;2023-02-19T07:33:10;102024.97;;;6.26;95.88
14089;BME280;7120;52.890;6.040;2023-02-19T07:35:36;102022.94;;;6.33;95.29
14089;BME280;7120;52.890;6.040;2023-02-19T07:38:01;102025.34;;;6.30;94.77
14089;BME280;7120;52.890;6.040;2023-02-19T07:40:27;102036.88;;;6.54;94.58
14089;BME280;7120;52.890;6.040;2023-02-19T07:42:52;102046.78;;;6.60;94.41
14089;BME280;7120;52.890;6.040;2023-02-19T07:45:17;102051.06;;;6.73;94.69
14089;BME280;7120;52.890;6.040;2023-02-19T07:47:43;102052.56;;;6.64;93.94
14089;BME280;7120;52.890;6.040;2023-02-19T07:50:08;102044.25;;;6.87;92.89
14089;BME280;7120;52.890;6.040;2023-02-19T07:52:34;102058.81;;;6.81;92.51
14089;BME280;7120;52.890;6.040;2023-02-19T07:54:59;102067.88;;;6.86;91.69
14089;BME280;7120;52.890;6.040;2023-02-19T07:57:26;102071.94;;;6.84;90.98
14089;BME280;7120;52.890;6.040;2023-02-19T07:59:52;102083.63;;;6.84;90.59
14089;BME280;7120;52.890;6.040;2023-02-19T08:02:19;102086.09;;;7.03;91.95
14089;BME280;7120;52.890;6.040;2023-02-19T08:05:05;102085.69;;;6.77;91.72
14089;BME280;7120;52.890;6.040;2023-02-19T08:07:34;102094.00;;;6.71;91.36
14089;BME280;7120;52.890;6.040;2023-02-19T08:10:01;102093.56;;;6.62;91.31
14089;BME280;7120;52.890;6.040;2023-02-19T08:12:53;102105.59;;;6.66;91.57
14089;BME280;7120;52.890;6.040;2023-02-19T08:15:37;102117.78;;;6.64;91.05
14089;BME280;7120;52.890;6.040;2023-02-19T08:18:03;102127.09;;;6.68;90.81
14089;BME280;7120;52.890;6.040;2023-02-19T08:20:28;102142.28;;;6.80;90.19
14089;BME280;7120;52.890;6.040;2023-02-19T08:22:53;102147.22;;;6.83;89.38
14089;BME280;7120;52.890;6.040;2023-02-19T08:25:19;102153.88;;;6.76;89.96
14089;BME280;7120;52.890;6.040;2023-02-19T08:27:44;102156.28;;;6.72;90.17
14089;BME280;7120;52.890;6.040;2023-02-19T08:30:10;102167.69;;;6.86;89.85
14089;BME280;7120;52.890;6.040;2023-02-19T08:32:35;102165.63;;;7.10;88.56
14089;BME280;7120;52.890;6.040;2023-02-19T08:35:01;102172.34;;;7.36;87.71
14089;BME280;7120;52.890;6.040;2023-02-19T08:37:26;102173.16;;;7.36;87.61
14089;BME280;7120;52.890;6.040;2023-02-19T08:39:51;102187.09;;;7.40;86.79
14089;BME280;7120;52.890;6.040;2023-02-19T08:42:16;102181.00;;;7.50;86.50
14089;BME280;7120;52.890;6.040;2023-02-19T08:44:42;102170.44;;;7.36;86.83
14089;BME280;7120;52.890;6.040;2023-02-19T08:47:07;102164.03;;;7.81;85.45
14089;BME280;7120;52.890;6.040;2023-02-19T08:49:32;102173.16;;;7.92;81.95
14089;BME280;7120;52.890;6.040;2023-02-19T08:51:58;102166.53;;;8.05;82.03
14089;BME280;7120;52.890;6.040;2023-02-19T08:54:23;102172.41;;;8.35;81.12
14089;BME280;7120;52.890;6.040;2023-02-19T08:56:48;102170.00;;;8.22;80.71
14089;BME280;7120;52.890;6.040;2023-02-19T08:59:14;102198.19;;;8.49;79.68
14089;BME280;7120;52.890;6.040;2023-02-19T09:01:39;102190.06;;;9.03;78.57
14089;BME280;7120;52.890;6.040;2023-02-19T09:04:05;102208.38;;;9.40;76.53
14089;BME280;7120;52.890;6.040;2023-02-19T09:06:30;102236.44;;;9.03;77.78
14089;BME280;7120;52.890;6.040;2023-02-19T09:08:55;102242.69;;;8.77;79.61
14089;BME280;7120;52.890;6.040;2023-02-19T09:11:21;102240.06;;;8.60;78.77
14089;BME280;7120;52.890;6.040;2023-02-19T09:13:46;102247.53;;;7.92;81.26
14089;BME280;7120;52.890;6.040;2023-02-19T09:16:11;102233.41;;;7.95;81.84
14089;BME280;7120;52.890;6.040;2023-02-19T09:18:37;102243.25;;;8.79;79.72
14089;BME280;7120;52.890;6.040;2023-02-19T09:21:03;102264.25;;;8.57;79.56
14089;BME280;7120;52.890;6.040;2023-02-19T09:23:31;102265.41;;;8.83;79.28
14089;BME280;7120;52.890;6.040;2023-02-19T09:25:58;102250.44;;;9.39;77.40
14089;BME280;7120;52.890;6.040;2023-02-19T09:28:24;102246.41;;;9.47;76.84
14089;BME280;7120;52.890;6.040;2023-02-19T09:30:50;102247.25;;;10.27;74.00
14089;BME280;7120;52.890;6.040;2023-02-19T09:33:15;102269.47;;;9.98;73.13
14089;BME280;7120;52.890;6.040;2023-02-19T09:35:40;102277.75;;;10.08;70.97
14089;BME280;7120;52.890;6.040;2023-02-19T09:38:06;102280.03;;;9.52;72.90
14089;BME280;7120;52.890;6.040;2023-02-19T09:40:31;102276.34;;;9.10;75.35
14089;BME280;7120;52.890;6.040;2023-02-19T09:42:59;102283.69;;;9.09;75.26
14089;BME280;7120;52.890;6.040;2023-02-19T09:45:25;102285.09;;;9.71;75.09
14089;BME280;7120;52.890;6.040;2023-02-19T09:47:57;102292.47;;;10.07;71.75
14089;BME280;7120;52.890;6.040;2023-02-19T09:50:31;102283.56;;;10.22;72.36
14089;BME280;7120;52.890;6.040;2023-02-19T09:53:01;102281.84;;;10.11;74.76
14089;BME280;7120;52.890;6.040;2023-02-19T09:55:33;102277.69;;;10.40;73.08
14089;BME280;7120;52.890;6.040;2023-02-19T09:58:02;102272.75;;;10.37;71.25
14089;BME280;7120;52.890;6.040;2023-02-19T10:00:29;102280.22;;;10.52;68.96
14089;BME280;7120;52.890;6.040;2023-02-19T10:03:03;102292.56;;;9.80;71.23
14089;BME280;7120;52.890;6.040;2023-02-19T10:05:29;102290.56;;;10.45;69.90
14089;BME280;7120;52.890;6.040;2023-02-19T10:07:56;102284.28;;;10.50;68.41
14089;BME280;7120;52.890;6.040;2023-02-19T10:10:31;102284.94;;;10.67;68.71
14089;BME280;7120;52.890;6.040;2023-02-19T10:13:22;102311.13;;;11.25;67.50
14089;BME280;7120;52.890;6.040;2023-02-19T10:15:53;102324.88;;;11.56;65.38
14089;BME280;7120;52.890;6.040;2023-02-19T10:18:26;102330.56;;;11.24;66.52
14089;BME280;7120;52.890;6.040;2023-02-19T10:20:53;102325.53;;;10.01;68.70
14089;BME280;7120;52.890;6.040;2023-02-19T10:23:20;102332.28;;;10.25;70.80
14089;BME280;7120;52.890;6.040;2023-02-19T10:25:52;102348.94;;;10.71;68.35
14089;BME280;7120;52.890;6.040;2023-02-19T10:28:21;102338.34;;;10.85;68.82
14089;BME280;7120;52.890;6.040;2023-02-19T10:30:51;102341.94;;;11.99;65.44
14089;BME280;7120;52.890;6.040;2023-02-19T10:33:18;102343.31;;;11.91;64.46
14089;BME280;7120;52.890;6.040;2023-02-19T10:36:02;102346.84;;;11.97;66.43
14089;BME280;7120;52.890;6.040;2023-02-19T10:38:31;102352.78;;;11.38;65.93
14089;BME280;7120;52.890;6.040;2023-02-19T10:43:31;102342.69;;;10.28;68.81
14089;BME280;7120;52.890;6.040;2023-02-19T10:46:01;102349.03;;;9.43;74.30
14089;BME280;7120;52.890;6.040;2023-02-19T10:48:30;102347.69;;;9.45;72.08
14089;BME280;7120;52.890;6.040;2023-02-19T10:51:03;102351.31;;;9.29;74.95
14089;BME280;7120;52.890;6.040;2023-02-19T10:53:44;102349.06;;;9.21;74.53
14089;BME280;7120;52.890;6.040;2023-02-19T10:56:22;102351.00;;;9.47;75.31
14089;BME280;7120;52.890;6.040;2023-02-19T10:58:48;102360.50;;;9.72;74.19
14089;BME280;7120;52.890;6.040;2023-02-19T11:01:15;102363.34;;;9.82;71.48
14089;BME280;7120;52.890;6.040;2023-02-19T11:03:44;102360.53;;;10.04;71.48
14089;BME280;7120;52.890;6.040;2023-02-19T11:06:12;102362.09;;;9.95;70.93
14089;BME280;7120;52.890;6.040;2023-02-19T11:08:53;102377.41;;;9.96;74.97
14089;BME280;7120;52.890;6.040;2023-02-19T11:11:33;102374.59;;;9.58;71.88
14089;BME280;7120;52.890;6.040;2023-02-19T11:14:10;102371.44;;;9.45;73.19
14089;BME280;7120;52.890;6.040;2023-02-19T11:16:43;102368.41;;;9.41;74.86
14089;BME280;7120;52.890;6.040;2023-02-19T11:19:39;102376.47;;;9.58;72.86
14089;BME280;7120;52.890;6.040;2023-02-19T11:22:30;102369.78;;;9.71;71.23
14089;BME280;7120;52.890;6.040;2023-02-19T11:25:01;102366.63;;;9.52;70.61
14089;BME280;7120;52.890;6.040;2023-02-19T11:27:28;102364.69;;;9.52;71.82
14089;BME280;7120;52.890;6.040;2023-02-19T11:29:53;102366.91;;;9.55;73.45
14089;BME280;7120;52.890;6.040;2023-02-19T11:34:44;102363.22;;;9.67;69.24
14089;BME280;7120;52.890;6.040;2023-02-19T11:37:15;102367.06;;;10.35;67.29
14089;BME280;7120;52.890;6.040;2023-02-19T11:39:43;102371.84;;;10.55;67.90
14089;BME280;7120;52.890;6.040;2023-02-19T11:55:39;102365.03;;;11.15;63.17
14089;BME280;7120;52.890;6.040;2023-02-19T12:06:42;102365.94;;;11.36;60.93
14089;BME280;7120;52.890;6.040;2023-02-19T12:09:32;102381.34;;;11.67;63.29
14089;BME280;7120;52.890;6.040;2023-02-19T12:17:44;102382.34;;;11.31;64.97
14089;BME280;7120;52.890;6.040;2023-02-19T12:25:53;102417.31;;;11.86;62.60
14089;BME280;7120;52.890;6.040;2023-02-19T12:33:48;102408.28;;;11.13;64.61
14089;BME280;7120;52.890;6.040;2023-02-19T12:36:30;102399.38;;;11.48;63.72
14089;BME280;7120;52.890;6.040;2023-02-19T12:44:40;102408.72;;;11.57;61.90
14089;BME280;7120;52.890;6.040;2023-02-19T12:47:16;102415.66;;;11.90;64.29
14089;BME280;7120;52.890;6.040;2023-02-19T12:49:48;102398.13;;;12.37;60.71
14089;BME280;7120;52.890;6.040;2023-02-19T12:52:24;102412.94;;;12.10;61.71
14089;BME280;7120;52.890;6.040;2023-02-19T12:54:53;102415.97;;;12.24;58.86
14089;BME280;7120;52.890;6.040;2023-02-19T12:57:20;102418.97;;;11.87;59.82
14089;BME280;7120;52.890;6.040;2023-02-19T13:00:18;102412.66;;;12.12;62.95
14089;BME280;7120;52.890;6.040;2023-02-19T13:08:25;102442.75;;;11.71;61.85
14089;BME280;7120;52.890;6.040;2023-02-19T13:11:04;102457.47;;;11.50;61.17
14089;BME280;7120;52.890;6.040;2023-02-19T13:13:37;102468.34;;;10.82;65.12
14089;BME280;7120;52.890;6.040;2023-02-19T13:16:09;102480.22;;;10.98;65.97
14089;BME280;7120;52.890;6.040;2023-02-19T13:18:49;102452.91;;;11.08;68.77
14089;BME280;7120;52.890;6.040;2023-02-19T13:21:18;102461.41;;;11.12;68.03
14089;BME280;7120;52.890;6.040;2023-02-19T13:24:15;102441.38;;;11.06;67.06
14089;BME280;7120;52.890;6.040;2023-02-19T13:37:06;102449.91;;;11.82;63.11
14089;BME280;7120;52.890;6.040;2023-02-19T13:39:32;102457.81;;;11.74;64.92
14089;BME280;7120;52.890;6.040;2023-02-19T13:41:58;102451.91;;;12.13;62.51
14089;BME280;7120;52.890;6.040;2023-02-19T13:44:29;102457.13;;;12.29;61.88
14089;BME280;7120;52.890;6.040;2023-02-19T13:46:55;102451.88;;;12.18;62.11
14089;BME280;7120;52.890;6.040;2023-02-19T13:51:56;102450.50;;;12.25;61.87
14089;BME280;7120;52.890;6.040;2023-02-19T13:54:30;102454.09;;;12.41;60.50
14089;BME280;7120;52.890;6.040;2023-02-19T13:59:51;102428.56;;;12.15;61.92
14089;BME280;7120;52.890;6.040;2023-02-19T14:14:52;102395.66;;;12.05;60.34
14089;BME280;7120;52.890;6.040;2023-02-19T14:23:07;102388.97;;;11.55;62.05
14089;BME280;7120;52.890;6.040;2023-02-19T14:25:40;102388.38;;;11.33;63.83
14089;BME280;7120;52.890;6.040;2023-02-19T14:33:10;102393.16;;;10.95;63.94
14089;BME280;7120;52.890;6.040;2023-02-19T14:35:41;102376.47;;;10.96;63.78
14089;BME280;7120;52.890;6.040;2023-02-19T14:38:15;102380.03;;;11.02;63.43
14089;BME280;7120;52.890;6.040;2023-02-19T14:40:43;102372.97;;;11.11;64.51
14089;BME280;7120;52.890;6.040;2023-02-19T14:43:13;102380.84;;;10.97;64.45
14089;BME280;7120;52.890;6.040;2023-02-19T14:46:00;102384.06;;;10.84;64.89
14089;BME280;7120;52.890;6.040;2023-02-19T14:48:31;102384.00;;;10.74;65.10
14089;BME280;7120;52.890;6.040;2023-02-19T14:51:03;102378.88;;;10.88;64.53
14089;BME280;7120;52.890;6.040;2023-02-19T14:53:35;102365.91;;;10.68;64.99
14089;BME280;7120;52.890;6.040;2023-02-19T14:56:01;102372.28;;;10.79;65.47
14089;BME280;7120;52.890;6.040;2023-02-19T14:58:31;102389.31;;;10.49;66.25
14089;BME280;7120;52.890;6.040;2023-02-19T15:00:57;102380.88;;;10.50;66.51
14089;BME280;7120;52.890;6.040;2023-02-19T15:03:34;102384.06;;;10.37;68.03
14089;BME280;7120;52.890;6.040;2023-02-19T15:06:07;102388.84;;;10.62;69.43
14089;BME280;7120;52.890;6.040;2023-02-19T15:08:39;102400.25;;;10.43;68.88
14089;BME280;7120;52.890;6.040;2023-02-19T15:11:09;102416.06;;;10.41;68.72